CheckWX is a tool to help pilots better visualize weather data.  It is not intended as a substitute for an official pre-flight weather briefing.

14:06:00 UTC

KGGG METAR
East Texas Regional Airport
Longview, Texas, USA
Current

6 mins ago

KGGG 071400Z VRB04KT 3SM HZ BKN004 25/22 A2999 RMK AO2 T02500222
Observed
Jul-7 @ 14:00 UTC
Wind
  • Variable at 4 KTS
Visibility
3 SM
Flight Rules
LIFR
Conditions
Haze
Cloud Levels
  • Broken at 400' AGL
Temperature
25°C / 77°F
Dewpoint
22°C / 72°F
Humidity
83%
Altimeter
29.99" Hg
Pressure
1015.62 hPa
Previous

28 mins ago

KGGG 071338Z 14007KT 10SM FEW005 SCT044 BKN110 24/22 A2998 RMK AO2 RAE38 P0003 T02440217
Observed
Jul-7 @ 13:38 UTC
Wind
  • 140° at 7 KTS
Visibility
10 SM
Flight Rules
VFR
Cloud Levels
  • Few at 500' AGL
  • Scattered at 4,400' AGL
  • Broken at 11,000' AGL
Temperature
24°C / 75°F
Dewpoint
22°C / 72°F
Humidity
89%
Altimeter
29.98" Hg
Pressure
1015.22 hPa
Current Rain
0.03"
Previous

1 hour ago

KGGG 071253Z AUTO 14004KT 10SM RA SCT048 BKN060 OVC100 23/21 A2999 RMK AO2 SLP148 P0019 T02330211
Observed
Jul-7 @ 12:53 UTC
Wind
  • 140° at 4 KTS
Visibility
10 SM
Flight Rules
VFR
Conditions
Rain
Cloud Levels
  • Scattered at 4,800' AGL
  • Broken at 6,000' AGL
  • Overcast at 10,000' AGL
Temperature
23°C / 73°F
Dewpoint
21°C / 70°F
Humidity
89%
Altimeter
29.99" Hg
Pressure
1015.62 hPa
Current Rain
0.19"